Time,TemperatureF,DewpointF,PressureIn,WindDirection,WindDirectionDegrees,WindSpeedMPH,WindSpeedGustMPH,Humidity,HourlyPrecipIn,Conditions,Clouds,dailyrainin,SoftwareType,DateUTC
2013-06-27 00:01:00,74.2,0.0,0.00,WNW,298,0.0,3.4,0,0.00,,CLR,0.00,VWS V13.01,2013-06-27 06:01:00,
2013-06-27 00:06:00,73.9,0.0,0.00,SW,217,3.2,5.3,0,0.00,,CLR,0.00,VWS V13.01,2013-06-27 06:06:00,
2013-06-27 00:11:00,73.9,0.0,0.00,West,277,5.6,5.8,0,0.00,,CLR,0.00,VWS V13.01,2013-06-27 06:11:00,
2013-06-27 00:16:00,73.9,0.0,0.00,West,259,0.0,0.0,0,0.00,,CLR,0.00,VWS V13.01,2013-06-27 06:16:00,
2013-06-27 00:21:00,73.9,0.0,0.00,SW,233,4.5,4.5,0,0.00,,CLR,0.00,VWS V13.01,2013-06-27 06:21:00,
2013-06-27 00:26:00,73.9,0.0,0.00,West,260,0.0,0.0,0,0.00,,CLR,0.00,VWS V13.01,2013-06-27 06:26:00,
2013-06-27 00:31:00,73.0,0.0,0.00,SSW,198,0.0,4.8,0,0.00,,CLR,0.00,VWS V13.01,2013-06-27 06:31:00,
2013-06-27 00:36:00,70.2,0.0,0.00,SW,236,0.0,0.0,0,0.00,,CLR,0.00,VWS V13.01,2013-06-27 06:36:00,
2013-06-27 00:41:00,68.5,0.0,0.00,SSW,210,0.0,3.4,0,0.00,,CLR,0.00,VWS V13.01,2013-06-27 06:41:00,
2013-06-27 00:46:00,68.2,0.0,0.00,WSW,245,0.0,2.9,0,0.00,,CLR,0.00,VWS V13.01,2013-06-27 06:46:00,
2013-06-27 00:51:00,68.2,0.0,0.00,SSW,212,3.4,3.4,0,0.00,,CLR,0.00,VWS V13.01,2013-06-27 06:51:00,
2013-06-27 00:56:00,67.7,0.0,0.00,SW,219,0.0,0.0,0,0.00,,CLR,0.00,VWS V13.01,2013-06-27 06:56:00,
2013-06-27 01:01:00,67.7,0.0,0.00,SSW,201,5.2,7.0,0,0.00,,CLR,0.00,VWS V13.01,2013-06-27 07:01:00,
2013-06-27 01:06:00,67.7,0.0,0.00,WSW,252,3.4,5.8,0,0.00,,CLR,0.00,VWS V13.01,2013-06-27 07:06:00,
2013-06-27 01:11:00,67.7,0.0,0.00,WSW,243,4.6,5.0,0,0.00,,CLR,0.00,VWS V13.01,2013-06-27 07:11:00,
2013-06-27 01:16:00,67.7,0.0,0.00,WSW,240,3.4,4.5,0,0.00,,CLR,0.00,VWS V13.01,2013-06-27 07:16:00,
2013-06-27 01:21:00,67.7,0.0,0.00,SW,224,3.1,5.3,0,0.00,,CLR,0.00,VWS V13.01,2013-06-27 07:21:00,
2013-06-27 01:26:00,67.5,0.0,0.00,WSW,245,0.0,1.6,0,0.00,,CLR,0.00,VWS V13.01,2013-06-27 07:26:00,
2013-06-27 01:31:00,68.2,0.0,0.00,SW,219,4.2,4.3,0,0.00,,CLR,0.00,VWS V13.01,2013-06-27 07:31:00,
2013-06-27 01:36:00,68.2,0.0,0.00,SW,222,5.7,6.0,0,0.00,,CLR,0.00,VWS V13.01,2013-06-27 07:36:00,
2013-06-27 01:41:00,68.2,0.0,0.00,WSW,239,0.0,0.0,0,0.00,,CLR,0.00,VWS V13.01,2013-06-27 07:41:00,
2013-06-27 01:46:00,67.9,0.0,0.00,SW,232,0.0,2.0,0,0.00,,CLR,0.00,VWS V13.01,2013-06-27 07:46:00,
2013-06-27 01:51:00,67.3,0.0,0.00,SW,221,0.0,0.0,0,0.00,,CLR,0.00,VWS V13.01,2013-06-27 07:51:00,
2013-06-27 01:56:00,67.7,0.0,0.00,SW,221,0.0,0.0,0,0.00,,CLR,0.00,VWS V13.01,2013-06-27 07:56:00,
2013-06-27 02:01:00,66.8,0.0,0.00,SW,221,0.0,0.0,0,0.00,,CLR,0.00,VWS V13.01,2013-06-27 08:01:00,
2013-06-27 02:06:00,65.6,0.0,0.00,SW,232,0.0,2.1,0,0.00,,CLR,0.00,VWS V13.01,2013-06-27 08:06:00,
2013-06-27 02:11:00,65.3,0.0,0.00,SW,218,0.0,4.2,0,0.00,,CLR,0.00,VWS V13.01,2013-06-27 08:11:00,
2013-06-27 02:16:00,65.6,0.0,0.00,SW,218,0.0,0.0,0,0.00,,CLR,0.00,VWS V13.01,2013-06-27 08:16:00,
2013-06-27 02:21:00,65.6,0.0,0.00,SSW,201,0.0,0.0,0,0.00,,CLR,0.00,VWS V13.01,2013-06-27 08:21:00,
2013-06-27 02:26:00,65.6,0.0,0.00,SSW,201,0.0,0.0,0,0.00,,CLR,0.00,VWS V13.01,2013-06-27 08:26:00,
2013-06-27 02:31:00,64.7,0.0,0.00,SSW,201,0.0,0.0,0,0.00,,CLR,0.00,VWS V13.01,2013-06-27 08:31:00,
2013-06-27 02:36:00,64.7,0.0,0.00,SSW,201,0.0,0.0,0,0.00,,CLR,0.00,VWS V13.01,2013-06-27 08:36:00,
2013-06-27 02:41:00,63.8,0.0,0.00,SW,231,0.0,0.0,0,0.00,,CLR,0.00,VWS V13.01,2013-06-27 08:41:00,
2013-06-27 02:46:00,63.5,0.0,0.00,WSW,238,0.0,0.0,0,0.00,,CLR,0.00,VWS V13.01,2013-06-27 08:46:00,
2013-06-27 02:51:00,63.8,0.0,0.00,WSW,238,0.0,0.0,0,0.00,,CLR,0.00,VWS V13.01,2013-06-27 08:51:00,
2013-06-27 02:56:00,63.8,0.0,0.00,SW,219,2.5,3.4,0,0.00,,CLR,0.00,VWS V13.01,2013-06-27 08:56:00,
2013-06-27 03:01:00,63.5,0.0,0.00,SE,143,0.0,0.0,0,0.00,,CLR,0.00,VWS V13.01,2013-06-27 09:01:00,
2013-06-27 03:06:00,63.0,0.0,0.00,SE,143,0.0,0.0,0,0.00,,CLR,0.00,VWS V13.01,2013-06-27 09:06:00,
2013-06-27 03:11:00,63.0,0.0,0.00,SSE,160,0.0,1.9,0,0.00,,CLR,0.00,VWS V13.01,2013-06-27 09:11:00,
2013-06-27 03:16:00,62.1,0.0,0.00,South,172,0.0,0.0,0,0.00,,CLR,0.00,VWS V13.01,2013-06-27 09:16:00,
2013-06-27 03:21:00,62.1,0.0,0.00,South,172,0.0,0.0,0,0.00,,CLR,0.00,VWS V13.01,2013-06-27 09:21:00,
2013-06-27 03:26:00,62.1,0.0,0.00,WSW,248,0.0,0.0,0,0.00,,CLR,0.00,VWS V13.01,2013-06-27 09:26:00,
2013-06-27 03:31:00,63.0,0.0,0.00,WSW,248,0.0,0.0,0,0.00,,CLR,0.00,VWS V13.01,2013-06-27 09:31:00,
2013-06-27 03:36:00,63.0,0.0,0.00,WSW,248,0.0,0.0,0,0.00,,CLR,0.00,VWS V13.01,2013-06-27 09:36:00,
2013-06-27 03:41:00,62.4,0.0,0.00,WSW,248,0.0,0.0,0,0.00,,CLR,0.00,VWS V13.01,2013-06-27 09:41:00,
2013-06-27 03:46:00,62.1,0.0,0.00,WSW,248,0.0,0.0,0,0.00,,CLR,0.00,VWS V13.01,2013-06-27 09:46:00,
2013-06-27 03:51:00,61.6,0.0,0.00,WSW,248,0.0,0.0,0,0.00,,CLR,0.00,VWS V13.01,2013-06-27 09:51:00,
2013-06-27 03:56:00,60.7,0.0,0.00,WSW,248,0.0,0.0,0,0.00,,CLR,0.00,VWS V13.01,2013-06-27 09:56:00,
2013-06-27 04:01:00,60.5,0.0,0.00,WSW,248,0.0,0.0,0,0.00,,CLR,0.00,VWS V13.01,2013-06-27 10:01:00,
2013-06-27 04:06:00,61.3,0.0,0.00,WSW,248,0.0,0.0,0,0.00,,CLR,0.00,VWS V13.01,2013-06-27 10:06:00,
2013-06-27 04:11:00,61.3,0.0,0.00,SSW,200,0.0,0.0,0,0.00,,CLR,0.00,VWS V13.01,2013-06-27 10:11:00,
2013-06-27 04:16:00,61.3,0.0,0.00,SSW,200,0.0,0.0,0,0.00,,CLR,0.00,VWS V13.01,2013-06-27 10:16:00,
2013-06-27 04:21:00,61.3,0.0,0.00,SSW,200,0.0,0.0,0,0.00,,CLR,0.00,VWS V13.01,2013-06-27 10:21:00,
2013-06-27 04:26:00,61.0,0.0,0.00,SSW,200,0.0,0.0,0,0.00,,CLR,0.00,VWS V13.01,2013-06-27 10:26:00,
2013-06-27 04:31:00,60.5,0.0,0.00,SSW,200,0.0,0.0,0,0.00,,CLR,0.00,VWS V13.01,2013-06-27 10:31:00,
2013-06-27 04:36:00,60.7,0.0,0.00,SSW,200,0.0,0.0,0,0.00,,CLR,0.00,VWS V13.01,2013-06-27 10:36:00,
2013-06-27 04:41:00,60.5,0.0,0.00,SSW,200,0.0,0.0,0,0.00,,CLR,0.00,VWS V13.01,2013-06-27 10:41:00,
2013-06-27 04:46:00,59.6,0.0,0.00,SSW,200,0.0,0.0,0,0.00,,CLR,0.00,VWS V13.01,2013-06-27 10:46:00,
2013-06-27 04:51:00,59.6,0.0,0.00,SSW,200,0.0,0.0,0,0.00,,CLR,0.00,VWS V13.01,2013-06-27 10:51:00,
2013-06-27 04:56:00,59.4,0.0,0.00,SSW,200,0.0,0.0,0,0.00,,CLR,0.00,VWS V13.01,2013-06-27 10:56:00,
2013-06-27 05:01:00,58.9,0.0,0.00,SSW,200,0.0,0.0,0,0.00,,CLR,0.00,VWS V13.01,2013-06-27 11:01:00,
2013-06-27 05:06:00,58.9,0.0,0.00,SSW,200,0.0,0.0,0,0.00,,CLR,0.00,VWS V13.01,2013-06-27 11:06:00,
2013-06-27 05:11:00,58.1,0.0,0.00,SSW,200,0.0,0.0,0,0.00,,CLR,0.00,VWS V13.01,2013-06-27 11:11:00,
2013-06-27 05:16:00,57.8,0.0,0.00,SSW,200,0.0,0.0,0,0.00,,CLR,0.00,VWS V13.01,2013-06-27 11:16:00,
2013-06-27 05:21:00,57.0,0.0,0.00,SSW,200,0.0,0.0,0,0.00,,CLR,0.00,VWS V13.01,2013-06-27 11:21:00,
2013-06-27 05:26:00,57.3,0.0,0.00,SSW,200,0.0,0.0,0,0.00,,CLR,0.00,VWS V13.01,2013-06-27 11:26:00,
2013-06-27 05:31:00,57.3,0.0,0.00,SSW,200,0.0,0.0,0,0.00,,CLR,0.00,VWS V13.01,2013-06-27 11:31:00,
2013-06-27 05:36:00,57.5,0.0,0.00,SSW,200,0.0,0.0,0,0.00,,CLR,0.00,VWS V13.01,2013-06-27 11:36:00,
2013-06-27 05:41:00,57.5,0.0,0.00,SSW,200,0.0,0.0,0,0.00,,CLR,0.00,VWS V13.01,2013-06-27 11:41:00,
2013-06-27 05:46:00,57.3,0.0,0.00,SSW,200,0.0,0.0,0,0.00,,CLR,0.00,VWS V13.01,2013-06-27 11:46:00,
2013-06-27 05:51:00,57.0,0.0,0.00,SSW,200,0.0,0.0,0,0.00,,CLR,0.00,VWS V13.01,2013-06-27 11:51:00,
2013-06-27 05:56:00,57.0,0.0,0.00,SSW,200,0.0,0.0,0,0.00,,CLR,0.00,VWS V13.01,2013-06-27 11:56:00,
2013-06-27 06:01:00,57.3,0.0,0.00,SSW,200,0.0,0.0,0,0.00,,CLR,0.00,VWS V13.01,2013-06-27 12:01:00,
2013-06-27 06:05:00,57.3,0.0,0.00,SSW,200,0.0,0.0,0,0.00,,CLR,0.00,VWS V13.01,2013-06-27 12:05:00,
2013-06-27 06:10:00,57.3,0.0,0.00,SSW,200,0.0,0.0,0,0.00,,CLR,0.00,VWS V13.01,2013-06-27 12:10:00,
2013-06-27 06:15:00,56.7,0.0,0.00,ESE,120,0.0,0.0,0,0.00,,CLR,0.00,VWS V13.01,2013-06-27 12:15:00,
2013-06-27 06:20:00,57.3,0.0,0.00,ESE,120,0.0,0.0,0,0.00,,CLR,0.00,VWS V13.01,2013-06-27 12:20:00,
2013-06-27 06:25:00,58.1,0.0,0.00,ESE,120,0.0,0.0,0,0.00,,CLR,0.00,VWS V13.01,2013-06-27 12:25:00,
2013-06-27 06:30:00,59.6,0.0,0.00,ESE,120,0.0,0.0,0,0.00,,CLR,0.00,VWS V13.01,2013-06-27 12:30:00,
2013-06-27 06:35:00,67.3,0.0,0.00,ESE,120,0.0,0.0,0,0.00,,CLR,0.00,VWS V13.01,2013-06-27 12:35:00,
2013-06-27 06:40:00,62.1,0.0,0.00,ESE,120,0.0,0.0,0,0.00,,CLR,0.00,VWS V13.01,2013-06-27 12:40:00,
2013-06-27 06:45:00,61.3,0.0,0.00,ESE,120,0.0,0.0,0,0.00,,CLR,0.00,VWS V13.01,2013-06-27 12:45:00,
2013-06-27 06:50:00,60.7,0.0,0.00,ESE,120,0.0,0.0,0,0.00,,CLR,0.00,VWS V13.01,2013-06-27 12:50:00,
2013-06-27 06:55:00,60.5,0.0,0.00,ESE,120,0.0,0.0,0,0.00,,CLR,0.00,VWS V13.01,2013-06-27 12:55:00,
2013-06-27 07:00:00,61.3,0.0,0.00,ESE,120,0.0,0.0,0,0.00,,CLR,0.00,VWS V13.01,2013-06-27 13:00:00,
2013-06-27 07:05:00,62.1,0.0,0.00,ESE,120,0.0,0.0,0,0.00,,CLR,0.00,VWS V13.01,2013-06-27 13:05:00,
2013-06-27 07:10:00,63.0,0.0,0.00,ESE,120,0.0,0.0,0,0.00,,CLR,0.00,VWS V13.01,2013-06-27 13:10:00,
2013-06-27 07:15:00,63.0,0.0,0.00,ESE,120,0.0,0.0,0,0.00,,CLR,0.00,VWS V13.01,2013-06-27 13:15:00,
2013-06-27 07:20:00,63.0,0.0,0.00,ESE,120,0.0,0.0,0,0.00,,CLR,0.00,VWS V13.01,2013-06-27 13:20:00,
2013-06-27 07:25:00,63.8,0.0,0.00,ESE,120,0.0,0.0,0,0.00,,CLR,0.00,VWS V13.01,2013-06-27 13:25:00,
2013-06-27 07:30:00,64.1,0.0,0.00,ESE,120,0.0,0.0,0,0.00,,CLR,0.00,VWS V13.01,2013-06-27 13:30:00,
2013-06-27 07:35:00,64.7,0.0,0.00,ESE,120,0.0,0.0,0,0.00,,CLR,0.00,VWS V13.01,2013-06-27 13:35:00,
2013-06-27 07:40:00,65.6,0.0,0.00,ESE,120,0.0,0.0,0,0.00,,CLR,0.00,VWS V13.01,2013-06-27 13:40:00,
2013-06-27 07:45:00,66.4,0.0,0.00,ESE,120,0.0,0.0,0,0.00,,CLR,0.00,VWS V13.01,2013-06-27 13:45:00,
2013-06-27 07:50:00,67.3,0.0,0.00,ESE,120,0.0,0.0,0,0.00,,CLR,0.00,VWS V13.01,2013-06-27 13:50:00,
2013-06-27 07:55:00,67.7,0.0,0.00,ESE,120,0.0,0.0,0,0.00,,CLR,0.00,VWS V13.01,2013-06-27 13:55:00,
2013-06-27 08:00:00,68.2,0.0,0.00,ESE,120,0.0,0.0,0,0.00,,CLR,0.00,VWS V13.01,2013-06-27 14:00:00,
2013-06-27 08:05:00,69.0,0.0,0.00,ESE,120,0.0,0.0,0,0.00,,CLR,0.00,VWS V13.01,2013-06-27 14:05:00,
2013-06-27 08:10:00,69.9,0.0,0.00,ESE,120,0.0,0.0,0,0.00,,CLR,0.00,VWS V13.01,2013-06-27 14:10:00,
2013-06-27 08:15:00,70.8,0.0,0.00,WSW,243,0.0,0.0,0,0.00,,CLR,0.00,VWS V13.01,2013-06-27 14:15:00,
2013-06-27 08:20:00,70.8,0.0,0.00,WSW,243,0.0,0.0,0,0.00,,CLR,0.00,VWS V13.01,2013-06-27 14:20:00,
2013-06-27 08:25:00,71.7,0.0,0.00,SW,232,0.0,0.0,0,0.00,,CLR,0.00,VWS V13.01,2013-06-27 14:25:00,
2013-06-27 08:30:00,71.7,0.0,0.00,SW,232,0.0,0.0,0,0.00,,CLR,0.00,VWS V13.01,2013-06-27 14:30:00,
2013-06-27 08:35:00,72.3,0.0,0.00,SW,232,0.0,0.0,0,0.00,,CLR,0.00,VWS V13.01,2013-06-27 14:35:00,
2013-06-27 08:40:00,72.7,0.0,0.00,SW,232,0.0,0.0,0,0.00,,CLR,0.00,VWS V13.01,2013-06-27 14:40:00,
2013-06-27 08:45:00,73.6,0.0,0.00,SW,232,0.0,0.0,0,0.00,,CLR,0.00,VWS V13.01,2013-06-27 14:45:00,
2013-06-27 08:50:00,73.6,0.0,0.00,SW,232,0.0,0.0,0,0.00,,CLR,0.00,VWS V13.01,2013-06-27 14:50:00,
2013-06-27 08:55:00,74.6,0.0,0.00,SE,131,0.0,0.0,0,0.00,,CLR,0.00,VWS V13.01,2013-06-27 14:55:00,
2013-06-27 09:00:00,74.6,0.0,0.00,SE,131,0.0,0.0,0,0.00,,CLR,0.00,VWS V13.01,2013-06-27 15:00:00,
2013-06-27 09:05:00,74.6,0.0,0.00,WSW,238,0.0,0.0,0,0.00,,CLR,0.00,VWS V13.01,2013-06-27 15:05:00,
2013-06-27 09:10:00,75.5,0.0,0.00,South,179,0.0,0.0,0,0.00,,CLR,0.00,VWS V13.01,2013-06-27 15:10:00,
2013-06-27 09:15:00,75.5,0.0,0.00,SW,229,7.4,8.5,0,0.00,,CLR,0.00,VWS V13.01,2013-06-27 15:15:00,
2013-06-27 09:20:00,75.5,0.0,0.00,WSW,240,0.0,0.0,0,0.00,,CLR,0.00,VWS V13.01,2013-06-27 15:20:00,
2013-06-27 09:25:00,76.4,0.0,0.00,SW,221,7.3,8.5,0,0.00,,CLR,0.00,VWS V13.01,2013-06-27 15:25:00,
2013-06-27 09:30:00,76.4,0.0,0.00,WSW,253,0.0,3.4,0,0.00,,CLR,0.00,VWS V13.01,2013-06-27 15:30:00,
2013-06-27 09:35:00,76.8,0.0,0.00,SSW,210,0.0,0.0,0,0.00,,CLR,0.00,VWS V13.01,2013-06-27 15:35:00,
2013-06-27 09:40:00,77.4,0.0,0.00,SW,233,0.0,0.0,0,0.00,,CLR,0.00,VWS V13.01,2013-06-27 15:40:00,
2013-06-27 09:45:00,77.1,0.0,0.00,West,276,2.1,2.1,0,0.00,,CLR,0.00,VWS V13.01,2013-06-27 15:45:00,
2013-06-27 09:50:00,77.4,0.0,0.00,SW,217,0.0,0.0,0,0.00,,CLR,0.00,VWS V13.01,2013-06-27 15:50:00,
2013-06-27 09:55:00,77.4,0.0,0.00,SW,217,0.0,0.0,0,0.00,,CLR,0.00,VWS V13.01,2013-06-27 15:55:00,
2013-06-27 10:00:00,78.4,0.0,0.00,SSW,202,0.0,0.0,0,0.00,,CLR,0.00,VWS V13.01,2013-06-27 16:00:00,
2013-06-27 10:05:00,77.4,0.0,0.00,SSW,202,0.0,0.0,0,0.00,,CLR,0.00,VWS V13.01,2013-06-27 16:05:00,
2013-06-27 10:10:00,78.4,0.0,0.00,SSW,198,3.4,5.7,0,0.00,,CLR,0.00,VWS V13.01,2013-06-27 16:10:00,
2013-06-27 10:15:00,78.8,0.0,0.00,SW,224,0.0,2.0,0,0.00,,CLR,0.00,VWS V13.01,2013-06-27 16:15:00,
2013-06-27 10:20:00,79.4,0.0,0.00,SW,228,4.7,7.5,0,0.00,,CLR,0.00,VWS V13.01,2013-06-27 16:20:00,
2013-06-27 10:25:00,79.4,0.0,0.00,East,80,3.4,4.8,0,0.00,,CLR,0.00,VWS V13.01,2013-06-27 16:25:00,
2013-06-27 10:30:00,80.4,0.0,0.00,SSE,165,0.0,0.0,0,0.00,,CLR,0.00,VWS V13.01,2013-06-27 16:30:00,
2013-06-27 10:35:00,80.4,0.0,0.00,SW,231,0.0,0.0,0,0.00,,CLR,0.00,VWS V13.01,2013-06-27 16:35:00,
2013-06-27 10:40:00,80.5,0.0,0.00,SW,235,3.3,3.3,0,0.00,,CLR,0.00,VWS V13.01,2013-06-27 16:40:00,
2013-06-27 10:45:00,80.4,0.0,0.00,WSW,238,0.0,0.0,0,0.00,,CLR,0.00,VWS V13.01,2013-06-27 16:45:00,
2013-06-27 10:50:00,82.0,0.0,0.00,SW,219,3.5,4.6,0,0.00,,CLR,0.00,VWS V13.01,2013-06-27 16:50:00,
2013-06-27 10:55:00,82.0,0.0,0.00,WSW,252,3.5,6.3,0,0.00,,CLR,0.00,VWS V13.01,2013-06-27 16:55:00,
2013-06-27 11:00:00,82.4,0.0,0.00,West,259,5.9,5.9,0,0.00,,CLR,0.00,VWS V13.01,2013-06-27 17:00:00,
2013-06-27 11:05:00,82.4,0.0,0.00,West,269,4.8,4.8,0,0.00,,CLR,0.00,VWS V13.01,2013-06-27 17:05:00,
2013-06-27 11:10:00,82.4,0.0,0.00,SW,221,0.0,0.0,0,0.00,,CLR,0.00,VWS V13.01,2013-06-27 17:10:00,
2013-06-27 11:15:00,82.4,0.0,0.00,West,264,0.0,4.9,0,0.00,,CLR,0.00,VWS V13.01,2013-06-27 17:15:00,
2013-06-27 11:20:00,82.4,0.0,0.00,South,186,9.3,9.3,0,0.00,,CLR,0.00,VWS V13.01,2013-06-27 17:20:00,
2013-06-27 11:25:00,82.4,0.0,0.00,SW,226,0.0,0.0,0,0.00,,CLR,0.00,VWS V13.01,2013-06-27 17:25:00,
2013-06-27 11:30:00,83.5,0.0,0.00,SW,228,0.0,0.0,0,0.00,,CLR,0.00,VWS V13.01,2013-06-27 17:30:00,
2013-06-27 11:35:00,83.1,0.0,0.00,WSW,252,0.0,3.2,0,0.00,,CLR,0.00,VWS V13.01,2013-06-27 17:35:00,
2013-06-27 11:40:00,83.5,0.0,0.00,SSW,201,4.8,7.3,0,0.00,,CLR,0.00,VWS V13.01,2013-06-27 17:40:00,
2013-06-27 11:45:00,83.5,0.0,0.00,SSW,200,0.0,4.5,0,0.00,,CLR,0.00,VWS V13.01,2013-06-27 17:45:00,
2013-06-27 11:50:00,84.1,0.0,0.00,SSW,201,0.0,0.0,0,0.00,,CLR,0.00,VWS V13.01,2013-06-27 17:50:00,
2013-06-27 11:55:00,84.4,0.0,0.00,SW,232,8.3,8.3,0,0.00,,CLR,0.00,VWS V13.01,2013-06-27 17:55:00,
2013-06-27 12:00:00,84.1,0.0,0.00,West,266,0.0,4.3,0,0.00,,CLR,0.00,VWS V13.01,2013-06-27 18:00:00,
2013-06-27 12:05:00,84.4,0.0,0.00,WSW,253,5.5,6.3,0,0.00,,CLR,0.00,VWS V13.01,2013-06-27 18:05:00,
2013-06-27 12:10:00,84.4,0.0,0.00,West,259,5.5,5.5,0,0.00,,CLR,0.00,VWS V13.01,2013-06-27 18:10:00,
2013-06-27 12:15:00,84.4,0.0,0.00,SW,221,8.1,8.1,0,0.00,,CLR,0.00,VWS V13.01,2013-06-27 18:15:00,
2013-06-27 12:20:00,85.5,0.0,0.00,SSW,211,0.0,0.0,0,0.00,,CLR,0.00,VWS V13.01,2013-06-27 18:20:00,
2013-06-27 12:25:00,86.3,0.0,0.00,SSW,201,3.2,5.8,0,0.00,,CLR,0.00,VWS V13.01,2013-06-27 18:25:00,
2013-06-27 12:30:00,86.3,0.0,0.00,West,274,0.0,0.0,0,0.00,,CLR,0.00,VWS V13.01,2013-06-27 18:30:00,
2013-06-27 12:35:00,85.5,0.0,0.00,WNW,298,0.0,0.0,0,0.00,,CLR,0.00,VWS V13.01,2013-06-27 18:35:00,
2013-06-27 12:40:00,85.5,0.0,0.00,West,274,0.0,3.0,0,0.00,,CLR,0.00,VWS V13.01,2013-06-27 18:40:00,
2013-06-27 12:45:00,85.9,0.0,0.00,WSW,240,0.0,0.0,0,0.00,,CLR,0.00,VWS V13.01,2013-06-27 18:45:00,
2013-06-27 12:50:00,85.5,0.0,0.00,SW,229,5.6,8.0,0,0.00,,CLR,0.00,VWS V13.01,2013-06-27 18:50:00,
2013-06-27 12:55:00,85.9,0.0,0.00,West,280,0.0,0.0,0,0.00,,CLR,0.00,VWS V13.01,2013-06-27 18:55:00,
2013-06-27 13:00:00,85.9,0.0,0.00,SW,231,0.0,3.3,0,0.00,,CLR,0.00,VWS V13.01,2013-06-27 19:00:00,
2013-06-27 13:05:00,85.5,0.0,0.00,WSW,248,8.8,9.2,0,0.00,,CLR,0.00,VWS V13.01,2013-06-27 19:05:00,
2013-06-27 13:10:00,86.3,0.0,0.00,WSW,242,8.0,8.0,0,0.00,,CLR,0.00,VWS V13.01,2013-06-27 19:10:00,
2013-06-27 13:15:00,86.7,0.0,0.00,WSW,239,8.4,8.4,0,0.00,,CLR,0.00,VWS V13.01,2013-06-27 19:15:00,
2013-06-27 13:20:00,87.1,0.0,0.00,ESE,105,5.1,7.0,0,0.00,,CLR,0.00,VWS V13.01,2013-06-27 19:20:00,
2013-06-27 13:25:00,87.8,0.0,0.00,SW,225,7.9,7.9,0,0.00,,CLR,0.00,VWS V13.01,2013-06-27 19:25:00,
2013-06-27 13:30:00,87.8,0.0,0.00,South,169,0.0,0.0,0,0.00,,CLR,0.00,VWS V13.01,2013-06-27 19:30:00,
2013-06-27 13:35:00,86.7,0.0,0.00,WNW,285,0.0,0.0,0,0.00,,CLR,0.00,VWS V13.01,2013-06-27 19:35:00,
2013-06-27 13:40:00,87.8,0.0,0.00,West,269,0.0,0.0,0,0.00,,CLR,0.00,VWS V13.01,2013-06-27 19:40:00,
2013-06-27 13:45:00,88.1,0.0,0.00,South,190,4.3,5.5,0,0.00,,CLR,0.00,VWS V13.01,2013-06-27 19:45:00,
2013-06-27 13:50:00,87.8,0.0,0.00,SW,236,14.8,14.8,0,0.00,,CLR,0.00,VWS V13.01,2013-06-27 19:50:00,
2013-06-27 13:55:00,87.8,0.0,0.00,SSW,208,5.3,8.5,0,0.00,,CLR,0.00,VWS V13.01,2013-06-27 19:55:00,
2013-06-27 14:00:00,87.8,0.0,0.00,WSW,240,0.0,0.0,0,0.00,,CLR,0.00,VWS V13.01,2013-06-27 20:00:00,
2013-06-27 14:05:00,88.9,0.0,0.00,West,277,4.6,6.4,0,0.00,,CLR,0.00,VWS V13.01,2013-06-27 20:05:00,
2013-06-27 14:10:00,88.9,0.0,0.00,SW,229,4.5,6.3,0,0.00,,CLR,0.00,VWS V13.01,2013-06-27 20:10:00,
2013-06-27 14:15:00,88.9,0.0,0.00,WSW,239,4.9,8.0,0,0.00,,CLR,0.00,VWS V13.01,2013-06-27 20:15:00,
2013-06-27 14:20:00,89.3,0.0,0.00,West,273,5.0,5.3,0,0.00,,CLR,0.00,VWS V13.01,2013-06-27 20:20:00,
2013-06-27 14:25:00,88.9,0.0,0.00,SSW,208,6.7,8.9,0,0.00,,CLR,0.00,VWS V13.01,2013-06-27 20:25:00,
2013-06-27 14:30:00,90.9,0.0,0.00,West,264,3.5,3.5,0,0.00,,CLR,0.00,VWS V13.01,2013-06-27 20:30:00,
2013-06-27 14:36:00,89.7,0.0,0.00,SSW,200,5.4,8.0,0,0.00,,CLR,0.00,VWS V13.01,2013-06-27 20:36:00,
2013-06-27 14:41:00,88.9,0.0,0.00,West,276,0.0,0.0,0,0.00,,CLR,0.00,VWS V13.01,2013-06-27 20:41:00,
2013-06-27 14:46:00,88.9,0.0,0.00,SW,218,5.6,5.8,0,0.00,,CLR,0.00,VWS V13.01,2013-06-27 20:46:00,
2013-06-27 14:51:00,90.1,0.0,0.00,South,188,0.0,0.0,0,0.00,,CLR,0.00,VWS V13.01,2013-06-27 20:51:00,
2013-06-27 14:56:00,90.1,0.0,0.00,WSW,248,0.0,0.0,0,0.00,,CLR,0.00,VWS V13.01,2013-06-27 20:56:00,
2013-06-27 15:01:00,90.4,0.0,0.00,WSW,250,0.0,0.0,0,0.00,,CLR,0.00,VWS V13.01,2013-06-27 21:01:00,
2013-06-27 15:06:00,90.9,0.0,0.00,South,183,0.0,0.0,0,0.00,,CLR,0.00,VWS V13.01,2013-06-27 21:06:00,
2013-06-27 15:12:00,90.1,0.0,0.00,NNW,330,9.5,11.4,0,0.00,,CLR,0.00,VWS V13.01,2013-06-27 21:12:00,
2013-06-27 15:17:00,90.1,0.0,0.00,NNW,329,0.0,0.0,0,0.00,,CLR,0.00,VWS V13.01,2013-06-27 21:17:00,
2013-06-27 15:22:00,90.3,0.0,0.00,SW,229,4.2,4.2,0,0.00,,CLR,0.00,VWS V13.01,2013-06-27 21:22:00,
2013-06-27 15:27:00,90.4,0.0,0.00,SSE,166,6.5,6.8,0,0.00,,CLR,0.00,VWS V13.01,2013-06-27 21:27:00,
2013-06-27 15:32:00,90.8,0.0,0.00,SSW,202,0.0,0.0,0,0.00,,CLR,0.00,VWS V13.01,2013-06-27 21:32:00,
2013-06-27 15:37:00,90.8,0.0,0.00,West,270,0.0,4.2,0,0.00,,CLR,0.00,VWS V13.01,2013-06-27 21:37:00,
2013-06-27 15:42:00,91.5,0.0,0.00,WSW,239,5.7,17.8,0,0.00,,CLR,0.00,VWS V13.01,2013-06-27 21:42:00,
2013-06-27 15:48:00,91.5,0.0,0.00,West,276,0.0,4.7,0,0.00,,CLR,0.00,VWS V13.01,2013-06-27 21:48:00,
2013-06-27 15:54:00,90.4,0.0,0.00,WSW,256,0.0,0.0,0,0.00,,CLR,0.00,VWS V13.01,2013-06-27 21:54:00,
2013-06-27 15:59:00,91.1,0.0,0.00,SW,228,0.0,0.0,0,0.00,,CLR,0.00,VWS V13.01,2013-06-27 21:59:00,
2013-06-27 16:04:00,91.5,0.0,0.00,WSW,256,3.4,5.7,0,0.00,,CLR,0.00,VWS V13.01,2013-06-27 22:04:00,
2013-06-27 16:10:00,91.5,0.0,0.00,SSW,212,5.6,7.6,0,0.00,,CLR,0.00,VWS V13.01,2013-06-27 22:10:00,
2013-06-27 16:15:00,91.1,0.0,0.00,SSW,210,9.8,10.7,0,0.00,,CLR,0.00,VWS V13.01,2013-06-27 22:15:00,
2013-06-27 16:20:00,92.3,0.0,0.00,South,176,3.4,9.0,0,0.00,,CLR,0.00,VWS V13.01,2013-06-27 22:20:00,
2013-06-27 16:25:00,92.8,0.0,0.00,SW,232,0.0,3.4,0,0.00,,CLR,0.00,VWS V13.01,2013-06-27 22:25:00,
2013-06-27 16:30:00,93.1,0.0,0.00,NW,304,5.2,5.2,0,0.00,,CLR,0.00,VWS V13.01,2013-06-27 22:30:00,
2013-06-27 16:35:00,91.5,0.0,0.00,WSW,253,0.0,0.0,0,0.00,,CLR,0.00,VWS V13.01,2013-06-27 22:35:00,
2013-06-27 16:40:00,92.0,0.0,0.00,West,273,0.0,0.0,0,0.00,,CLR,0.00,VWS V13.01,2013-06-27 22:40:00,
2013-06-27 16:45:00,93.5,0.0,0.00,WSW,246,0.0,3.5,0,0.00,,CLR,0.00,VWS V13.01,2013-06-27 22:45:00,
2013-06-27 16:51:00,92.8,0.0,0.00,South,174,5.1,7.5,0,0.00,,CLR,0.00,VWS V13.01,2013-06-27 22:51:00,
2013-06-27 16:56:00,91.5,0.0,0.00,West,264,0.0,0.0,0,0.00,,CLR,0.00,VWS V13.01,2013-06-27 22:56:00,
2013-06-27 17:01:00,92.8,0.0,0.00,SW,229,5.2,10.3,0,0.00,,CLR,0.00,VWS V13.01,2013-06-27 23:01:00,
2013-06-27 17:06:00,94.0,0.0,0.00,SSE,166,0.0,2.7,0,0.00,,CLR,0.00,VWS V13.01,2013-06-27 23:06:00,
2013-06-27 17:11:00,94.0,0.0,0.00,SW,231,0.0,0.0,0,0.00,,CLR,0.00,VWS V13.01,2013-06-27 23:11:00,
2013-06-27 17:16:00,92.8,0.0,0.00,WNW,295,0.0,0.0,0,0.00,,CLR,0.00,VWS V13.01,2013-06-27 23:16:00,
2013-06-27 17:22:00,93.1,0.0,0.00,SW,224,7.3,8.8,0,0.00,,CLR,0.00,VWS V13.01,2013-06-27 23:22:00,
2013-06-27 17:27:00,93.1,0.0,0.00,WNW,291,0.0,4.5,0,0.00,,CLR,0.00,VWS V13.01,2013-06-27 23:27:00,
2013-06-27 17:32:00,92.8,0.0,0.00,WSW,240,4.2,7.0,0,0.00,,CLR,0.00,VWS V13.01,2013-06-27 23:32:00,
2013-06-27 17:37:00,94.0,0.0,0.00,SW,228,9.9,9.9,0,0.00,,CLR,0.00,VWS V13.01,2013-06-27 23:37:00,
2013-06-27 17:43:00,94.0,0.0,0.00,WSW,256,2.4,3.4,0,0.00,,CLR,0.00,VWS V13.01,2013-06-27 23:43:00,
2013-06-27 17:48:00,93.5,0.0,0.00,West,277,0.0,0.0,0,0.00,,CLR,0.00,VWS V13.01,2013-06-27 23:48:00,
2013-06-27 17:53:00,92.8,0.0,0.00,SSW,212,4.5,8.4,0,0.00,,CLR,0.00,VWS V13.01,2013-06-27 23:53:00,
2013-06-27 17:58:00,92.8,0.0,0.00,SW,224,5.7,6.3,0,0.00,,CLR,0.00,VWS V13.01,2013-06-27 23:58:00,
2013-06-27 18:03:00,94.0,0.0,0.00,SSW,207,6.4,6.6,0,0.00,,CLR,0.00,VWS V13.01,2013-06-28 00:03:00,
2013-06-27 18:08:00,93.1,0.0,0.00,SW,221,5.0,6.8,0,0.00,,CLR,0.00,VWS V13.01,2013-06-28 00:08:00,
2013-06-27 18:13:00,92.8,0.0,0.00,West,259,0.0,0.0,0,0.00,,CLR,0.00,VWS V13.01,2013-06-28 00:13:00,
2013-06-27 18:18:00,92.3,0.0,0.00,South,188,0.0,3.2,0,0.00,,CLR,0.00,VWS V13.01,2013-06-28 00:18:00,
2013-06-27 18:24:00,92.8,0.0,0.00,WNW,290,3.5,6.9,0,0.00,,CLR,0.00,VWS V13.01,2013-06-28 00:24:00,
2013-06-27 18:29:00,91.5,0.0,0.00,South,181,0.0,4.1,0,0.00,,CLR,0.00,VWS V13.01,2013-06-28 00:29:00,
2013-06-27 18:34:00,92.0,0.0,0.00,SSW,198,0.0,0.0,0,0.00,,CLR,0.00,VWS V13.01,2013-06-28 00:34:00,
2013-06-27 18:39:00,92.3,0.0,0.00,WNW,302,0.0,0.0,0,0.00,,CLR,0.00,VWS V13.01,2013-06-28 00:39:00,
2013-06-27 18:44:00,92.0,0.0,0.00,NW,322,0.0,0.0,0,0.00,,CLR,0.00,VWS V13.01,2013-06-28 00:44:00,
2013-06-27 18:49:00,92.8,0.0,0.00,WSW,248,0.0,0.0,0,0.00,,CLR,0.00,VWS V13.01,2013-06-28 00:49:00,
2013-06-27 18:54:00,91.5,0.0,0.00,SW,225,0.0,0.0,0,0.00,,CLR,0.00,VWS V13.01,2013-06-28 00:54:00,
2013-06-27 18:59:00,92.3,0.0,0.00,SE,143,3.1,5.5,0,0.00,,CLR,0.00,VWS V13.01,2013-06-28 00:59:00,
2013-06-27 19:04:00,91.5,0.0,0.00,SW,214,0.0,0.0,0,0.00,,CLR,0.00,VWS V13.01,2013-06-28 01:04:00,
2013-06-27 19:10:00,91.5,0.0,0.00,WNW,287,0.0,0.0,0,0.00,,CLR,0.00,VWS V13.01,2013-06-28 01:10:00,
2013-06-27 19:15:00,90.4,0.0,0.00,West,269,0.0,0.0,0,0.00,,CLR,0.00,VWS V13.01,2013-06-28 01:15:00,
2013-06-27 19:21:00,90.4,0.0,0.00,SSW,200,0.0,0.0,0,0.00,,CLR,0.00,VWS V13.01,2013-06-28 01:21:00,
2013-06-27 19:26:00,90.4,0.0,0.00,SW,224,0.0,0.0,0,0.00,,CLR,0.00,VWS V13.01,2013-06-28 01:26:00,
2013-06-27 19:31:00,90.4,0.0,0.00,West,271,0.0,0.0,0,0.00,,CLR,0.00,VWS V13.01,2013-06-28 01:31:00,
2013-06-27 19:36:00,90.4,0.0,0.00,West,271,0.0,0.0,0,0.00,,CLR,0.00,VWS V13.01,2013-06-28 01:36:00,
2013-06-27 19:41:00,89.2,0.0,0.00,West,281,4.5,4.8,0,0.00,,CLR,0.00,VWS V13.01,2013-06-28 01:41:00,
2013-06-27 19:47:00,88.8,0.0,0.00,West,260,0.0,0.0,0,0.00,,CLR,0.00,VWS V13.01,2013-06-28 01:47:00,
2013-06-27 19:52:00,88.1,0.0,0.00,West,281,0.0,0.0,0,0.00,,CLR,0.00,VWS V13.01,2013-06-28 01:52:00,
2013-06-27 19:57:00,88.1,0.0,0.00,WSW,257,0.0,0.0,0,0.00,,CLR,0.00,VWS V13.01,2013-06-28 01:57:00,
2013-06-27 20:02:00,88.1,0.0,0.00,WSW,257,0.0,0.0,0,0.00,,CLR,0.00,VWS V13.01,2013-06-28 02:02:00,
2013-06-27 20:07:00,87.0,0.0,0.00,WNW,283,0.0,0.0,0,0.00,,CLR,0.00,VWS V13.01,2013-06-28 02:07:00,
2013-06-27 20:12:00,87.0,0.0,0.00,WNW,283,0.0,0.0,0,0.00,,CLR,0.00,VWS V13.01,2013-06-28 02:12:00,
2013-06-27 20:18:00,87.0,0.0,0.00,WNW,283,0.0,0.0,0,0.00,,CLR,0.00,VWS V13.01,2013-06-28 02:18:00,
2013-06-27 20:23:00,85.9,0.0,0.00,West,271,0.0,0.0,0,0.00,,CLR,0.00,VWS V13.01,2013-06-28 02:23:00,
2013-06-27 20:28:00,85.9,0.0,0.00,West,271,0.0,0.0,0,0.00,,CLR,0.00,VWS V13.01,2013-06-28 02:28:00,
2013-06-27 20:33:00,85.5,0.0,0.00,West,271,0.0,0.0,0,0.00,,CLR,0.00,VWS V13.01,2013-06-28 02:33:00,
2013-06-27 20:39:00,85.1,0.0,0.00,West,271,0.0,0.0,0,0.00,,CLR,0.00,VWS V13.01,2013-06-28 02:39:00,
2013-06-27 20:44:00,84.8,0.0,0.00,West,271,0.0,0.0,0,0.00,,CLR,0.00,VWS V13.01,2013-06-28 02:44:00,
2013-06-27 20:49:00,84.1,0.0,0.00,West,271,0.0,0.0,0,0.00,,CLR,0.00,VWS V13.01,2013-06-28 02:49:00,
2013-06-27 20:54:00,83.7,0.0,0.00,West,271,0.0,0.0,0,0.00,,CLR,0.00,VWS V13.01,2013-06-28 02:54:00,
2013-06-27 20:59:00,83.7,0.0,0.00,West,271,0.0,0.0,0,0.00,,CLR,0.00,VWS V13.01,2013-06-28 02:59:00,
2013-06-27 21:04:00,83.7,0.0,0.00,West,271,0.0,0.0,0,0.00,,CLR,0.00,VWS V13.01,2013-06-28 03:04:00,
2013-06-27 21:10:00,83.4,0.0,0.00,West,271,0.0,0.0,0,0.00,,CLR,0.00,VWS V13.01,2013-06-28 03:10:00,
2013-06-27 21:15:00,83.0,0.0,0.00,West,271,0.0,0.0,0,0.00,,CLR,0.00,VWS V13.01,2013-06-28 03:15:00,
2013-06-27 21:20:00,82.6,0.0,0.00,West,271,0.0,0.0,0,0.00,,CLR,0.00,VWS V13.01,2013-06-28 03:20:00,
2013-06-27 21:25:00,83.0,0.0,0.00,West,271,0.0,0.0,0,0.00,,CLR,0.00,VWS V13.01,2013-06-28 03:25:00,
2013-06-27 21:31:00,81.5,0.0,0.00,West,271,0.0,0.0,0,0.00,,CLR,0.00,VWS V13.01,2013-06-28 03:31:00,
2013-06-27 21:36:00,80.5,0.0,0.00,West,271,0.0,0.0,0,0.00,,CLR,0.00,VWS V13.01,2013-06-28 03:36:00,
2013-06-27 21:41:00,79.8,0.0,0.00,West,271,0.0,0.0,0,0.00,,CLR,0.00,VWS V13.01,2013-06-28 03:41:00,
2013-06-27 21:46:00,79.4,0.0,0.00,West,271,0.0,0.0,0,0.00,,CLR,0.00,VWS V13.01,2013-06-28 03:46:00,
2013-06-27 21:52:00,78.8,0.0,0.00,West,271,0.0,0.0,0,0.00,,CLR,0.00,VWS V13.01,2013-06-28 03:52:00,
2013-06-27 21:57:00,78.4,0.0,0.00,West,271,0.0,0.0,0,0.00,,CLR,0.00,VWS V13.01,2013-06-28 03:57:00,
2013-06-27 22:01:00,77.8,0.0,0.00,West,271,0.0,0.0,0,0.00,,CLR,0.00,VWS V13.01,2013-06-28 04:01:00,
2013-06-27 22:06:00,77.8,0.0,0.00,SSW,212,0.0,3.1,0,0.00,,CLR,0.00,VWS V13.01,2013-06-28 04:06:00,
2013-06-27 22:11:00,77.8,0.0,0.00,SSW,202,0.0,0.0,0,0.00,,CLR,0.00,VWS V13.01,2013-06-28 04:11:00,
2013-06-27 22:16:00,77.8,0.0,0.00,SSW,202,0.0,0.0,0,0.00,,CLR,0.00,VWS V13.01,2013-06-28 04:16:00,
2013-06-27 22:21:00,76.8,0.0,0.00,SSW,202,0.0,0.0,0,0.00,,CLR,0.00,VWS V13.01,2013-06-28 04:21:00,
2013-06-27 22:26:00,77.1,0.0,0.00,SSW,202,0.0,0.0,0,0.00,,CLR,0.00,VWS V13.01,2013-06-28 04:26:00,
2013-06-27 22:31:00,76.8,0.0,0.00,SSW,202,0.0,0.0,0,0.00,,CLR,0.00,VWS V13.01,2013-06-28 04:31:00,
2013-06-27 22:36:00,75.8,0.0,0.00,SSW,202,0.0,0.0,0,0.00,,CLR,0.00,VWS V13.01,2013-06-28 04:36:00,
2013-06-27 22:41:00,76.1,0.0,0.00,SSW,202,0.0,0.0,0,0.00,,CLR,0.00,VWS V13.01,2013-06-28 04:41:00,
2013-06-27 22:46:00,75.5,0.0,0.00,SSW,202,0.0,0.0,0,0.00,,CLR,0.00,VWS V13.01,2013-06-28 04:46:00,
2013-06-27 22:51:00,75.2,0.0,0.00,SSW,202,0.0,0.0,0,0.00,,CLR,0.00,VWS V13.01,2013-06-28 04:51:00,
2013-06-27 22:56:00,74.9,0.0,0.00,SSW,202,0.0,0.0,0,0.00,,CLR,0.00,VWS V13.01,2013-06-28 04:56:00,
2013-06-27 23:01:00,74.9,0.0,0.00,SSW,202,0.0,0.0,0,0.00,,CLR,0.00,VWS V13.01,2013-06-28 05:01:00,
2013-06-27 23:06:00,77.8,0.0,0.00,West,269,3.5,6.9,0,0.00,,CLR,0.00,VWS V13.01,2013-06-28 05:06:00,
2013-06-27 23:11:00,78.1,0.0,0.00,NW,308,0.0,0.0,0,0.00,,CLR,0.00,VWS V13.01,2013-06-28 05:11:00,
2013-06-27 23:16:00,77.8,0.0,0.00,NW,308,4.7,5.8,0,0.00,,CLR,0.00,VWS V13.01,2013-06-28 05:16:00,
2013-06-27 23:21:00,77.8,0.0,0.00,NW,321,6.3,7.5,0,0.00,,CLR,0.00,VWS V13.01,2013-06-28 05:21:00,
2013-06-27 23:26:00,77.8,0.0,0.00,NW,321,0.0,0.0,0,0.00,,CLR,0.00,VWS V13.01,2013-06-28 05:26:00,
2013-06-27 23:31:00,76.8,0.0,0.00,NW,314,0.0,0.0,0,0.00,,CLR,0.00,VWS V13.01,2013-06-28 05:31:00,
2013-06-27 23:36:00,76.4,0.0,0.00,NW,321,0.0,3.2,0,0.00,,CLR,0.00,VWS V13.01,2013-06-28 05:36:00,
2013-06-27 23:41:00,75.8,0.0,0.00,NW,311,0.0,0.0,0,0.00,,CLR,0.00,VWS V13.01,2013-06-28 05:41:00,
2013-06-27 23:46:00,75.5,0.0,0.00,North,359,0.0,4.7,0,0.00,,CLR,0.00,VWS V13.01,2013-06-28 05:46:00,
2013-06-27 23:51:00,75.8,0.0,0.00,WNW,297,0.0,0.0,0,0.00,,CLR,0.00,VWS V13.01,2013-06-28 05:51:00,
2013-06-27 23:56:00,75.8,0.0,0.00,WNW,298,0.0,0.0,0,0.00,,CLR,0.00,VWS V13.01,2013-06-28 05:56:00,